createdAt,value
2019-02-23T00:01:15.826Z,104219.78
2019-02-23T00:03:45.520Z,104212.45
2019-02-23T00:06:15.072Z,104206.45
2019-02-23T00:08:44.765Z,104204.19
2019-02-23T00:11:14.443Z,104204.77
2019-02-23T00:13:44.085Z,104206.22
2019-02-23T00:16:13.802Z,104203.48
2019-02-23T00:18:43.442Z,104203.25
2019-02-23T00:21:13.200Z,104205.92
2019-02-23T00:23:42.861Z,104222.70
2019-02-23T00:26:12.472Z,104214.02
2019-02-23T00:28:42.081Z,104213.36
2019-02-23T00:31:11.750Z,104204.05
2019-02-23T00:33:41.400Z,104195.58
2019-02-23T00:36:11.038Z,104191.03
2019-02-23T00:38:40.654Z,104198.47
2019-02-23T00:41:10.318Z,104198.77
2019-02-23T00:43:40.118Z,104203.19
2019-02-23T00:46:09.746Z,104209.60
2019-02-23T00:48:39.348Z,104205.45
2019-02-23T00:51:09.028Z,104191.66
2019-02-23T00:53:38.635Z,104193.06
2019-02-23T00:56:08.251Z,104195.56
2019-02-23T00:58:37.878Z,104201.62
2019-02-23T01:01:07.504Z,104221.38
2019-02-23T01:03:37.158Z,104219.32
2019-02-23T01:06:06.876Z,104222.06
2019-02-23T01:08:36.490Z,104231.61
2019-02-23T01:11:06.129Z,104236.89
2019-02-23T01:13:35.901Z,104235.39
2019-02-23T01:16:05.713Z,104241.72
2019-02-23T01:18:35.314Z,104236.79
2019-02-23T01:21:05.052Z,104235.39
2019-02-23T01:23:34.673Z,104233.42
2019-02-23T01:26:04.308Z,104234.83
2019-02-23T01:28:33.922Z,104230.27
2019-02-23T01:31:03.639Z,104234.55
2019-02-23T01:33:33.278Z,104236.56
2019-02-23T01:36:02.958Z,104232.08
2019-02-23T01:38:35.651Z,104226.81
2019-02-23T01:41:05.466Z,104235.58
2019-02-23T01:43:35.130Z,104237.11
2019-02-23T01:46:04.798Z,104235.55
2019-02-23T01:48:34.448Z,104235.34
2019-02-23T01:51:04.087Z,104244.69
2019-02-23T01:53:33.726Z,104254.45
2019-02-23T01:56:04.846Z,104242.95
2019-02-23T01:58:34.518Z,104245.97
2019-02-23T02:01:05.099Z,104245.59
2019-02-23T02:03:34.906Z,104246.05
2019-02-23T02:06:04.621Z,104249.31
2019-02-23T02:08:34.741Z,104244.76
2019-02-23T02:11:04.358Z,104230.38
2019-02-23T02:13:34.023Z,104231.25
2019-02-23T02:16:03.664Z,104227.24
2019-02-23T02:18:33.450Z,104222.12
2019-02-23T02:21:03.076Z,104214.97
2019-02-23T02:23:32.708Z,104207.61
2019-02-23T02:26:02.495Z,104202.34
2019-02-23T02:28:36.894Z,104201.53
2019-02-23T02:31:06.528Z,104203.29
2019-02-23T02:33:55.505Z,104195.87
2019-02-23T02:36:25.204Z,104196.06
2019-02-23T02:38:54.919Z,104197.92
2019-02-23T02:41:24.532Z,104197.94
2019-02-23T02:43:54.289Z,104201.41
2019-02-23T02:46:23.919Z,104204.12
2019-02-23T02:48:53.578Z,104208.88
2019-02-23T02:51:23.213Z,104209.13
2019-02-23T02:53:52.870Z,104205.41
2019-02-23T02:56:22.529Z,104205.89
2019-02-23T02:58:52.166Z,104216.30
2019-02-23T03:01:21.835Z,104224.61
2019-02-23T03:03:51.500Z,104229.81
2019-02-23T03:06:21.125Z,104225.89
2019-02-23T03:08:50.937Z,104228.69
2019-02-23T03:11:20.710Z,104221.86
2019-02-23T03:13:50.632Z,104229.68
2019-02-23T03:16:20.564Z,104240.02
2019-02-23T03:18:50.586Z,104238.55
2019-02-23T03:21:20.472Z,104243.86
2019-02-23T03:23:50.387Z,104243.33
2019-02-23T03:26:20.285Z,104227.55
2019-02-23T03:28:50.434Z,104227.06
2019-02-23T03:31:20.297Z,104220.78
2019-02-23T03:33:50.368Z,104219.28
2019-02-23T03:36:20.242Z,104227.13
2019-02-23T03:38:50.154Z,104214.98
2019-02-23T03:41:20.706Z,104212.22
2019-02-23T03:43:50.513Z,104212.06
2019-02-23T03:46:20.230Z,104212.56
2019-02-23T03:48:49.938Z,104209.18
2019-02-23T03:51:19.651Z,104203.27
2019-02-23T03:53:49.307Z,104209.47
2019-02-23T03:56:19.137Z,104205.84
2019-02-23T03:58:49.750Z,104213.27
2019-02-23T04:01:19.398Z,104215.47
2019-02-23T04:03:49.088Z,104221.39
2019-02-23T04:06:18.749Z,104225.16
2019-02-23T04:08:48.382Z,104218.14
2019-02-23T04:11:18.090Z,104218.18
2019-02-23T04:13:47.801Z,104218.63
2019-02-23T04:16:17.444Z,104228.79
2019-02-23T04:18:47.121Z,104236.70
2019-02-23T04:21:16.755Z,104233.20
2019-02-23T04:23:46.457Z,104236.10
2019-02-23T04:26:16.216Z,104237.20
2019-02-23T04:28:45.829Z,104242.95
2019-02-23T04:31:15.503Z,104232.03
2019-02-23T04:33:45.126Z,104237.68
2019-02-23T04:36:14.756Z,104233.27
2019-02-23T04:38:44.390Z,104230.06
2019-02-23T04:41:14.046Z,104233.59
2019-02-23T04:43:44.274Z,104228.17
2019-02-23T04:46:13.968Z,104222.66
2019-02-23T04:48:43.608Z,104219.59
2019-02-23T04:51:14.768Z,104207.06
2019-02-23T04:53:44.838Z,104202.64
2019-02-23T04:56:14.535Z,104203.84
2019-02-23T04:58:44.152Z,104195.81
2019-02-23T05:01:13.824Z,104197.09
2019-02-23T05:03:43.481Z,104184.45
2019-02-23T05:06:13.213Z,104183.27
2019-02-23T05:08:42.859Z,104189.63
2019-02-23T05:11:12.564Z,104191.95
2019-02-23T05:13:42.190Z,104181.33
2019-02-23T05:16:11.828Z,104196.36
2019-02-23T05:18:41.458Z,104198.34
2019-02-23T05:21:11.173Z,104205.00
2019-02-23T05:23:40.911Z,104194.97
2019-02-23T05:26:10.550Z,104190.41
2019-02-23T05:28:40.194Z,104192.77
2019-02-23T05:31:09.911Z,104190.31
2019-02-23T05:33:39.775Z,104192.77
2019-02-23T05:36:09.533Z,104198.01
2019-02-23T05:38:39.158Z,104195.02
2019-02-23T05:41:08.820Z,104205.25
2019-02-23T05:43:38.558Z,104200.13
2019-02-23T05:46:08.204Z,104209.58
2019-02-23T05:48:37.844Z,104212.40
2019-02-23T05:51:07.462Z,104202.74
2019-02-23T05:53:37.257Z,104201.80
2019-02-23T05:56:07.085Z,104191.22
2019-02-23T05:58:36.814Z,104195.16
2019-02-23T06:01:06.504Z,104198.23
2019-02-23T06:03:36.324Z,104189.23
2019-02-23T06:06:06.201Z,104188.68
2019-02-23T06:08:35.880Z,104183.27
2019-02-23T06:11:05.905Z,104194.66
2019-02-23T06:13:35.714Z,104189.56
2019-02-23T06:16:06.929Z,104193.50
2019-02-23T06:18:36.685Z,104201.30
2019-02-23T06:21:06.376Z,104197.71
2019-02-23T06:23:36.086Z,104185.02
2019-02-23T06:26:05.740Z,104177.55
2019-02-23T06:28:35.469Z,104174.16
2019-02-23T06:31:05.194Z,104177.02
2019-02-23T06:33:34.867Z,104178.41
2019-02-23T06:36:07.086Z,104170.72
2019-02-23T06:38:35.956Z,104158.87
2019-02-23T06:41:05.644Z,104154.12
2019-02-23T06:43:35.494Z,104158.13
2019-02-23T06:46:05.201Z,104151.23
2019-02-23T06:48:35.143Z,104161.59
2019-02-23T06:51:04.816Z,104164.81
2019-02-23T06:53:34.521Z,104161.91
2019-02-23T06:56:04.208Z,104161.48
2019-02-23T06:58:33.943Z,104168.99
2019-02-23T07:01:03.692Z,104164.78
2019-02-23T07:03:33.427Z,104171.47
2019-02-23T07:06:03.100Z,104190.70
2019-02-23T07:08:32.858Z,104204.20
2019-02-23T07:11:02.523Z,104209.77
2019-02-23T07:13:32.218Z,104206.67
2019-02-23T07:16:07.618Z,104205.69
2019-02-23T07:18:37.326Z,104199.20
2019-02-23T07:21:07.046Z,104194.31
2019-02-23T07:23:36.769Z,104187.27
2019-02-23T07:26:06.573Z,104195.30
2019-02-23T07:28:36.284Z,104185.89
2019-02-23T07:31:05.961Z,104183.12
2019-02-23T07:33:35.733Z,104173.75
2019-02-23T07:36:05.404Z,104178.82
2019-02-23T07:38:35.613Z,104172.69
2019-02-23T07:41:05.382Z,104162.29
2019-02-23T07:43:35.079Z,104150.23
2019-02-23T07:46:04.748Z,104146.88
2019-02-23T07:48:34.492Z,104151.56
2019-02-23T07:51:04.152Z,104156.69
2019-02-23T07:53:33.822Z,104163.95
2019-02-23T07:56:06.151Z,104161.17
2019-02-23T07:58:35.044Z,104149.89
2019-02-23T08:01:04.776Z,104148.09
2019-02-23T08:03:34.486Z,104151.55
2019-02-23T08:06:04.274Z,104137.95
2019-02-23T08:08:33.934Z,104140.33
2019-02-23T08:11:03.866Z,104140.38
2019-02-23T08:13:33.637Z,104143.25
2019-02-23T08:16:03.349Z,104144.64
2019-02-23T08:18:34.696Z,104152.11
2019-02-23T08:21:04.482Z,104153.55
2019-02-23T08:23:34.300Z,104164.41
2019-02-23T08:26:04.073Z,104165.80
2019-02-23T08:28:33.739Z,104169.17
2019-02-23T08:31:03.488Z,104164.50
2019-02-23T08:33:33.243Z,104156.09
2019-02-23T08:36:02.996Z,104147.77
2019-02-23T08:38:32.995Z,104142.59
2019-02-23T08:41:02.672Z,104143.69
2019-02-23T08:43:32.456Z,104138.73
2019-02-23T08:46:02.120Z,104142.84
2019-02-23T08:48:48.400Z,104144.65
2019-02-23T08:51:18.253Z,104151.98
2019-02-23T08:53:47.994Z,104152.70
2019-02-23T08:56:17.623Z,104150.10
2019-02-23T08:58:47.373Z,104142.66
2019-02-23T09:01:17.332Z,104140.45
2019-02-23T09:03:49.671Z,104138.27
2019-02-23T09:06:18.544Z,104136.66
2019-02-23T09:08:48.159Z,104123.76
2019-02-23T09:11:17.864Z,104130.41
2019-02-23T09:13:47.678Z,104127.17
2019-02-23T09:16:17.374Z,104126.91
2019-02-23T09:18:46.994Z,104120.58
2019-02-23T09:21:16.686Z,104115.61
2019-02-23T09:23:46.672Z,104111.02
2019-02-23T09:26:16.330Z,104097.27
2019-02-23T09:28:46.228Z,104102.24
2019-02-23T09:31:15.836Z,104113.38
2019-02-23T09:33:45.476Z,104103.16
2019-02-23T09:36:15.119Z,104101.06
2019-02-23T09:38:44.723Z,104100.09
2019-02-23T09:41:14.502Z,104102.03
2019-02-23T09:43:44.148Z,104094.44
2019-02-23T09:46:13.829Z,104086.45
2019-02-23T09:48:43.478Z,104073.46
2019-02-23T09:51:13.199Z,104073.56
2019-02-23T09:53:42.817Z,104073.63
2019-02-23T09:56:12.489Z,104086.66
2019-02-23T09:58:42.108Z,104095.75
2019-02-23T10:01:11.787Z,104093.10
2019-02-23T10:03:41.634Z,104097.09
2019-02-23T10:06:11.339Z,104106.08
2019-02-23T10:08:41.035Z,104109.36
2019-02-23T10:11:11.153Z,104103.09
2019-02-23T10:13:47.015Z,104109.45
2019-02-23T10:16:16.848Z,104107.73
2019-02-23T10:18:46.532Z,104089.41
2019-02-23T10:21:16.153Z,104090.35
2019-02-23T10:23:45.792Z,104096.20
2019-02-23T10:26:15.427Z,104097.98
2019-02-23T10:28:45.050Z,104089.05
2019-02-23T10:31:14.709Z,104104.77
2019-02-23T10:33:47.581Z,104097.59
2019-02-23T10:36:15.755Z,104104.32
2019-02-23T10:38:45.405Z,104109.72
2019-02-23T10:41:15.050Z,104116.91
2019-02-23T10:43:44.730Z,104119.59
2019-02-23T10:46:14.463Z,104125.42
2019-02-23T10:48:44.102Z,104116.04
2019-02-23T10:51:13.843Z,104120.98
2019-02-23T10:53:43.456Z,104111.97
2019-02-23T10:56:13.090Z,104115.14
2019-02-23T10:58:42.781Z,104118.67
2019-02-23T11:01:12.955Z,104111.08
2019-02-23T11:03:43.048Z,104104.82
2019-02-23T11:06:12.869Z,104104.36
2019-02-23T11:08:42.485Z,104098.98
2019-02-23T11:11:12.154Z,104094.50
2019-02-23T11:13:41.901Z,104086.87
2019-02-23T11:16:11.613Z,104077.88
2019-02-23T11:18:41.245Z,104074.32
2019-02-23T11:21:11.003Z,104070.24
2019-02-23T11:23:44.128Z,104061.73
2019-02-23T11:26:12.082Z,104058.14
2019-02-23T11:28:41.819Z,104052.28
2019-02-23T11:31:11.614Z,104046.91
2019-02-23T11:33:42.338Z,104047.34
2019-02-23T11:36:12.058Z,104043.32
2019-02-23T11:38:41.902Z,104041.06
2019-02-23T11:41:11.554Z,104034.31
2019-02-23T11:43:41.193Z,104031.18
2019-02-23T11:46:10.805Z,104032.51
2019-02-23T11:48:40.459Z,104039.69
2019-02-23T11:51:10.439Z,104046.41
2019-02-23T11:53:40.113Z,104056.33
2019-02-23T11:56:09.740Z,104051.37
2019-02-23T11:58:39.462Z,104037.42
2019-02-23T12:01:09.077Z,104033.83
2019-02-23T12:03:38.822Z,104026.14
2019-02-23T12:06:08.437Z,104017.64
2019-02-23T12:08:38.062Z,104024.36
2019-02-23T12:11:08.005Z,104021.66
2019-02-23T12:13:37.754Z,104017.55
2019-02-23T12:16:08.430Z,104012.64
2019-02-23T12:18:38.231Z,104011.34
2019-02-23T12:21:10.821Z,104010.88
2019-02-23T12:23:46.663Z,104005.07
2019-02-23T12:26:15.206Z,104005.44
2019-02-23T12:28:44.844Z,104008.59
2019-02-23T12:31:14.486Z,104003.19
2019-02-23T12:33:44.155Z,104001.75
2019-02-23T12:36:13.928Z,104007.61
2019-02-23T12:38:43.710Z,103998.03
2019-02-23T12:41:13.410Z,104003.23
2019-02-23T12:43:43.195Z,104006.86
2019-02-23T12:46:14.511Z,104008.70
2019-02-23T12:48:44.175Z,104002.54
2019-02-23T12:51:13.848Z,103998.94
2019-02-23T12:53:44.900Z,103988.11
2019-02-23T12:56:14.556Z,103994.83
2019-02-23T12:58:48.748Z,103989.91
2019-02-23T13:01:22.685Z,103980.94
2019-02-23T13:03:52.375Z,103982.17
2019-02-23T13:06:21.985Z,103993.35
2019-02-23T13:09:16.893Z,103979.83
2019-02-23T13:12:21.401Z,103982.97
2019-02-23T13:14:59.830Z,103973.91
2019-02-23T13:17:47.632Z,103974.77
2019-02-23T13:20:29.337Z,103967.64
2019-02-23T13:23:16.465Z,103967.73
2019-02-23T13:25:51.862Z,103969.45
2019-02-23T13:28:39.391Z,103963.13
2019-02-23T13:31:39.355Z,103955.13
2019-02-23T13:34:20.897Z,103949.69
2019-02-23T13:37:05.152Z,103955.66
2019-02-23T13:39:55.935Z,103951.55
2019-02-23T13:42:55.961Z,103948.00
2019-02-23T13:45:44.137Z,103954.35
2019-02-23T13:48:21.220Z,103942.65
2019-02-23T13:51:04.184Z,103943.53
2019-02-23T13:53:42.374Z,103943.61
2019-02-23T13:56:33.235Z,103939.45
2019-02-23T13:59:24.000Z,103947.55
2019-02-23T14:02:14.798Z,103943.91
2019-02-23T14:04:50.155Z,103933.56
2019-02-23T14:07:22.989Z,103936.17
2019-02-23T14:10:01.468Z,103935.41
2019-02-23T14:12:40.131Z,103943.42
2019-02-23T14:15:30.160Z,103940.25
2019-02-23T14:18:11.959Z,103932.23
2019-02-23T14:20:56.669Z,103931.34
2019-02-23T14:23:35.363Z,103936.17
2019-02-23T14:26:20.349Z,103935.73
2019-02-23T14:28:58.651Z,103934.75
2019-02-23T14:31:41.552Z,103942.08
2019-02-23T14:34:47.776Z,103948.36
2019-02-23T14:37:23.262Z,103947.89
2019-02-23T14:40:27.873Z,103952.37
2019-02-23T14:43:17.322Z,103942.83
2019-02-23T14:46:01.803Z,103938.48
2019-02-23T14:48:58.166Z,103931.24
2019-02-23T14:51:47.209Z,103928.52
2019-02-23T14:54:28.901Z,103925.49
2019-02-23T14:57:01.618Z,103929.08
2019-02-23T14:59:37.075Z,103927.73
2019-02-23T15:02:32.428Z,103925.42
2019-02-23T15:05:23.486Z,103930.84
2019-02-23T15:08:11.140Z,103938.55
2019-02-23T15:10:55.907Z,103939.05
2019-02-23T15:13:40.568Z,103936.29
2019-02-23T15:16:36.030Z,103939.84
2019-02-23T15:19:11.750Z,103932.19
2019-02-23T15:22:04.000Z,103934.84
2019-02-23T15:24:42.418Z,103933.50
2019-02-23T15:27:29.553Z,103926.20
2019-02-23T15:30:17.300Z,103920.33
2019-02-23T15:33:07.884Z,103915.10
2019-02-23T15:35:52.203Z,103911.63
2019-02-23T15:38:26.723Z,103905.34
2019-02-23T15:41:14.464Z,103910.83
2019-02-23T15:43:53.092Z,103905.36
2019-02-23T15:46:37.377Z,103908.58
2019-02-23T15:49:13.034Z,103907.66
2019-02-23T15:51:42.649Z,103907.31
2019-02-23T15:54:12.506Z,103907.77
2019-02-23T15:56:42.192Z,103905.98
2019-02-23T15:59:11.827Z,103897.93
2019-02-23T16:01:41.745Z,103888.92
2019-02-23T16:04:11.486Z,103895.11
2019-02-23T16:06:41.114Z,103897.02
2019-02-23T16:09:10.783Z,103891.14
2019-02-23T16:11:40.580Z,103888.10
2019-02-23T16:14:10.235Z,103885.83
2019-02-23T16:16:39.861Z,103882.23
2019-02-23T16:19:09.521Z,103881.86
2019-02-23T16:21:39.105Z,103885.47
2019-02-23T16:24:08.866Z,103886.44
2019-02-23T16:26:38.677Z,103891.42
2019-02-23T16:29:08.457Z,103893.20
2019-02-23T16:32:11.491Z,103891.44
2019-02-23T16:34:41.464Z,103885.60
2019-02-23T16:37:11.135Z,103889.23
2019-02-23T16:39:40.758Z,103897.29
2019-02-23T16:42:10.368Z,103891.03
2019-02-23T16:44:40.189Z,103888.79
2019-02-23T16:47:09.824Z,103897.31
2019-02-23T16:49:39.511Z,103893.31
2019-02-23T16:52:09.862Z,103888.38
2019-02-23T16:54:39.502Z,103893.78
2019-02-23T16:57:09.170Z,103890.64
2019-02-23T16:59:38.899Z,103884.34
2019-02-23T17:02:08.575Z,103891.97
2019-02-23T17:04:38.173Z,103890.19
2019-02-23T17:07:08.216Z,103888.81
2019-02-23T17:09:38.210Z,103894.64
2019-02-23T17:12:08.383Z,103889.23
2019-02-23T17:14:38.427Z,103885.19
2019-02-23T17:17:13.016Z,103895.95
2019-02-23T17:19:43.095Z,103903.12
2019-02-23T17:22:12.853Z,103897.27
2019-02-23T17:24:42.466Z,103894.56
2019-02-23T17:27:12.098Z,103895.03
2019-02-23T17:29:41.703Z,103893.67
2019-02-23T17:32:13.636Z,103892.81
2019-02-23T17:34:43.753Z,103892.34
2019-02-23T17:37:13.525Z,103893.70
2019-02-23T17:39:43.138Z,103896.41
2019-02-23T17:42:12.861Z,103892.34
2019-02-23T17:44:42.639Z,103891.86
2019-02-23T17:47:12.288Z,103896.31
2019-02-23T17:49:41.923Z,103903.88
2019-02-23T17:52:11.560Z,103898.92
2019-02-23T17:54:41.251Z,103905.56
2019-02-23T17:57:10.908Z,103899.26
2019-02-23T17:59:40.621Z,103893.38
2019-02-23T18:02:10.359Z,103892.89
2019-02-23T18:04:40.068Z,103897.28
2019-02-23T18:07:09.719Z,103892.31
2019-02-23T18:09:39.410Z,103889.56
2019-02-23T18:12:09.090Z,103897.16
2019-02-23T18:14:38.733Z,103901.09
2019-02-23T18:17:09.321Z,103904.20
2019-02-23T18:19:38.938Z,103903.72
2019-02-23T18:22:08.594Z,103895.19
2019-02-23T18:24:38.212Z,103893.77
2019-02-23T18:27:08.561Z,103891.06
2019-02-23T18:29:38.374Z,103889.23
2019-02-23T18:32:08.093Z,103886.53
2019-02-23T18:34:37.700Z,103890.05
2019-02-23T18:37:07.318Z,103901.61
2019-02-23T18:39:36.958Z,103890.87
2019-02-23T18:42:06.586Z,103893.11
2019-02-23T18:44:36.243Z,103901.09
2019-02-23T18:47:05.998Z,103896.12
2019-02-23T18:49:35.662Z,103895.64
2019-02-23T18:52:05.290Z,103884.41
2019-02-23T18:54:46.293Z,103890.61
2019-02-23T18:57:16.420Z,103894.77
2019-02-23T18:59:48.602Z,103894.48
2019-02-23T19:02:18.321Z,103896.34
2019-02-23T19:04:48.029Z,103895.41
2019-02-23T19:07:19.365Z,103893.99
2019-02-23T19:09:49.081Z,103885.86
2019-02-23T19:12:18.700Z,103885.31
2019-02-23T19:14:48.392Z,103882.11
2019-02-23T19:17:18.255Z,103885.55
2019-02-23T19:19:48.211Z,103880.77
2019-02-23T19:22:17.806Z,103885.77
2019-02-23T19:24:47.459Z,103877.41
2019-02-23T19:27:20.155Z,103874.53
2019-02-23T19:29:50.160Z,103875.95
2019-02-23T19:32:20.071Z,103875.16
2019-02-23T19:34:50.064Z,103877.94
2019-02-23T19:37:19.680Z,103876.20
2019-02-23T19:39:49.369Z,103863.25
2019-02-23T19:42:19.088Z,103857.92
2019-02-23T19:44:48.961Z,103858.87
2019-02-23T19:47:18.640Z,103849.06
2019-02-23T19:49:49.338Z,103847.28
2019-02-23T19:52:19.114Z,103852.16
2019-02-23T19:54:49.069Z,103857.56
2019-02-23T19:57:18.681Z,103854.37
2019-02-23T19:59:48.594Z,103855.70
2019-02-23T20:02:18.170Z,103855.27
2019-02-23T20:04:47.956Z,103852.61
2019-02-23T20:07:17.626Z,103845.36
2019-02-23T20:09:47.251Z,103848.86
2019-02-23T20:12:16.959Z,103855.19
2019-02-23T20:14:46.627Z,103847.55
2019-02-23T20:17:16.254Z,103845.34
2019-02-23T20:19:47.171Z,103852.07
2019-02-23T20:22:17.666Z,103851.17
2019-02-23T20:24:47.357Z,103855.66
2019-02-23T20:27:16.970Z,103849.38
2019-02-23T20:29:47.728Z,103851.04
2019-02-23T20:32:17.424Z,103856.45
2019-02-23T20:34:47.411Z,103855.52
2019-02-23T20:37:17.020Z,103857.78
2019-02-23T20:39:46.666Z,103849.39
2019-02-23T20:42:16.369Z,103851.59
2019-02-23T20:44:46.055Z,103854.77
2019-02-23T20:47:17.255Z,103855.05
2019-02-23T20:49:47.143Z,103850.10
2019-02-23T20:52:16.828Z,103848.94
2019-02-23T20:54:46.628Z,103851.47
2019-02-23T20:57:16.501Z,103848.33
2019-02-23T20:59:47.991Z,103838.53
2019-02-23T21:02:17.822Z,103847.09
2019-02-23T21:04:47.467Z,103834.86
2019-02-23T21:07:17.091Z,103835.77
2019-02-23T21:09:46.737Z,103831.72
2019-02-23T21:12:16.440Z,103823.28
2019-02-23T21:14:46.163Z,103824.98
2019-02-23T21:17:16.042Z,103817.89
2019-02-23T21:19:45.869Z,103824.12
2019-02-23T21:22:15.561Z,103816.58
2019-02-23T21:24:45.318Z,103813.42
2019-02-23T21:27:15.549Z,103817.87
2019-02-23T21:29:45.307Z,103810.70
2019-02-23T21:32:15.595Z,103805.39
2019-02-23T21:34:45.339Z,103811.20
2019-02-23T21:37:15.213Z,103804.45
2019-02-23T21:39:44.878Z,103800.04
2019-02-23T21:42:14.733Z,103798.20
2019-02-23T21:44:44.418Z,103803.52
2019-02-23T21:47:14.111Z,103810.23
2019-02-23T21:49:44.145Z,103811.06
2019-02-23T21:52:14.044Z,103808.86
2019-02-23T21:54:43.737Z,103810.17
2019-02-23T21:57:21.811Z,103796.66
2019-02-23T21:59:45.024Z,103805.52
2019-02-23T22:02:14.891Z,103806.83
2019-02-23T22:04:44.651Z,103811.19
2019-02-23T22:07:14.409Z,103816.45
2019-02-23T22:09:44.127Z,103818.13
2019-02-23T22:12:13.876Z,103818.50
2019-02-23T22:14:43.662Z,103819.78
2019-02-23T22:17:13.593Z,103813.42
2019-02-23T22:19:43.335Z,103807.12
2019-02-23T22:22:13.353Z,103804.34
2019-02-23T22:24:43.164Z,103811.92
2019-02-23T22:27:12.917Z,103815.00
2019-02-23T22:29:42.733Z,103818.95
2019-02-23T22:32:12.489Z,103817.11
2019-02-23T22:34:42.556Z,103823.70
2019-02-23T22:37:12.185Z,103824.94
2019-02-23T22:39:41.911Z,103825.66
2019-02-23T22:42:11.678Z,103825.12
2019-02-23T22:44:41.393Z,103827.72
2019-02-23T22:47:11.072Z,103833.54
2019-02-23T22:49:40.896Z,103835.38
2019-02-23T22:52:10.610Z,103837.55
2019-02-23T22:54:40.475Z,103835.00
2019-02-23T22:57:10.234Z,103830.02
2019-02-23T22:59:40.006Z,103830.69
2019-02-23T23:02:09.699Z,103835.48
2019-02-23T23:04:39.453Z,103839.45
2019-02-23T23:07:09.194Z,103835.39
2019-02-23T23:09:38.952Z,103838.14
2019-02-23T23:12:08.643Z,103834.48
2019-02-23T23:14:38.366Z,103835.10
2019-02-23T23:17:08.025Z,103829.14
2019-02-23T23:19:37.735Z,103836.70
2019-02-23T23:22:07.425Z,103826.88
2019-02-23T23:24:37.192Z,103826.32
2019-02-23T23:27:06.960Z,103823.08
2019-02-23T23:29:36.627Z,103827.55
2019-02-23T23:32:06.300Z,103822.16
2019-02-23T23:34:36.017Z,103823.02
2019-02-23T23:37:05.782Z,103823.59
2019-02-23T23:39:35.477Z,103820.91
2019-02-23T23:42:05.233Z,103813.83
2019-02-23T23:44:34.974Z,103815.67
2019-02-23T23:47:04.647Z,103822.19
2019-02-23T23:49:34.368Z,103820.70
2019-02-23T23:52:04.129Z,103823.83
2019-02-23T23:54:33.836Z,103820.39
2019-02-23T23:57:03.626Z,103819.99
2019-02-23T23:59:33.349Z,103820.45
